Time;durP1;ratioP1;P1;durP2;ratioP2;P2;SDS_P1;SDS_P2;PMS_P1;PMS_P2;Temp;Humidity;BMP_temperature;BMP_pressure;BME280_temperature;BME280_humidity;BME280_pressure;Samples;Min_cycle;Max_cycle;Signal;HPM_P1;HPM_P2
2022/04/11 00:04:32;;;;;;;7.63;5.30;;;;;;;2.13;94.45;97241.38;10294310;28;20034;-59
2022/04/11 00:09:31;;;;;;;8.30;5.03;;;;;;;2.18;94.15;97246.59;10294821;28;20132;-60
2022/04/11 00:14:30;;;;;;;6.75;4.57;;;;;;;1.70;94.16;97176.38;10294095;28;20065;-59
2022/04/11 00:19:29;;;;;;;19.55;10.48;;;;;;;2.20;94.32;97267.13;10294038;28;20030;-60
2022/04/11 00:24:28;;;;;;;15.02;7.28;;;;;;;1.81;94.38;97216.69;10294295;28;20061;-60
2022/04/11 00:29:27;;;;;;;9.32;5.90;;;;;;;1.79;94.45;97231.16;10293508;28;20061;-60
2022/04/11 00:34:26;;;;;;;8.32;5.30;;;;;;;1.74;94.61;97231.91;10293404;28;20045;-59
2022/04/11 00:39:25;;;;;;;8.43;4.93;;;;;;;2.22;94.86;97306.44;10293451;28;20018;-60
2022/04/11 00:44:24;;;;;;;9.68;5.78;;;;;;;2.15;94.93;97300.28;10292759;28;20033;-60
2022/04/11 00:49:23;;;;;;;7.15;4.45;;;;;;;2.40;94.75;97334.19;10292851;28;20056;-60
2022/04/11 00:54:24;;;;;;;6.97;3.70;;;;;;;1.92;94.45;97271.56;10292964;28;20483;-60
2022/04/11 00:59:24;;;;;;;5.10;3.33;;;;;;;2.21;94.42;97328.59;10292204;28;20057;-59
2022/04/11 01:04:23;;;;;;;3.08;2.25;;;;;;;2.53;93.94;97379.72;10291939;28;20061;-60
2022/04/11 01:09:26;;;;;;;7.03;3.53;;;;;;;1.81;94.28;97368.53;10292016;28;20044;-60
2022/04/11 01:14:25;;;;;;;4.85;2.67;;;;;;;1.68;94.64;97376.69;10292263;28;20503;-60
2022/04/11 01:19:26;;;;;;;2.20;1.73;;;;;;;1.45;95.40;97406.69;10291466;28;20522;-60
2022/04/11 01:24:28;;;;;;;14.43;7.22;;;;;;;1.45;96.20;97416.94;10291671;28;20084;-60
2022/04/11 01:29:27;;;;;;;40.55;20.02;;;;;;;1.34;96.79;97434.50;10291730;28;20088;-60
2022/04/11 01:34:26;;;;;;;3.65;1.25;;;;;;;0.68;97.28;97374.59;10290427;28;20061;-61
2022/04/11 01:39:25;;;;;;;7.28;3.17;;;;;;;0.77;97.96;97432.75;10290975;28;20036;-61
2022/04/11 01:44:24;;;;;;;1.20;1.05;;;;;;;0.39;98.86;97437.47;10291015;28;20072;-61
2022/04/11 01:49:23;;;;;;;2.08;1.00;;;;;;;0.53;99.74;97470.25;10290726;28;20056;-62
2022/04/11 01:54:22;;;;;;;0.50;0.50;;;;;;;-0.13;99.97;97399.09;10290361;28;20113;-62
2022/04/11 01:59:21;;;;;;;0.70;0.70;;;;;;;0.04;100.00;97431.16;10290514;28;20498;-62
2022/04/11 02:04:20;;;;;;;1.88;0.65;;;;;;;0.33;100.00;97506.16;10289847;28;20037;-62
2022/04/11 02:09:19;;;;;;;3.80;1.85;;;;;;;0.02;100.00;97451.50;10290023;28;20533;-63
2022/04/11 02:14:18;;;;;;;1.73;0.82;;;;;;;0.35;100.00;97511.34;10289433;28;20117;-63
2022/04/11 02:19:17;;;;;;;0.90;0.47;;;;;;;0.36;100.00;97519.06;10290467;28;20018;-62
2022/04/11 02:24:16;;;;;;;3.40;1.73;;;;;;;0.34;100.00;97536.00;10289633;28;20226;-62
2022/04/11 02:29:15;;;;;;;6.85;2.60;;;;;;;0.23;100.00;97527.09;10289954;28;20116;-62
2022/04/11 02:34:14;;;;;;;3.17;1.83;;;;;;;0.29;100.00;97534.97;10289083;28;20037;-63
2022/04/11 02:39:13;;;;;;;2.45;1.33;;;;;;;-0.22;100.00;97451.50;10289366;28;20402;-63
2022/04/11 02:44:12;;;;;;;1.75;1.08;;;;;;;0.10;100.00;97519.78;10289716;28;20100;-62
2022/04/11 02:49:11;;;;;;;5.57;2.40;;;;;;;-0.11;100.00;97474.88;10297398;28;20580;-63
2022/04/11 02:54:10;;;;;;;9.90;3.63;;;;;;;0.25;100.00;97530.56;10297627;28;20599;-61
2022/04/11 02:59:09;;;;;;;21.13;9.43;;;;;;;0.08;100.00;97485.69;10297747;28;20546;-62
2022/04/11 03:04:08;;;;;;;20.02;7.25;;;;;;;0.56;100.00;97567.38;10297106;28;20068;-62
2022/04/11 03:09:08;;;;;;;2.80;1.50;;;;;;;0.52;100.00;97557.88;10297101;28;20034;-62
2022/04/11 03:14:07;;;;;;;1.13;0.93;;;;;;;-0.71;99.99;97337.59;10296799;28;20385;-62
2022/04/11 03:19:06;;;;;;;1.95;1.45;;;;;;;0.61;100.00;97535.22;10296396;28;20357;-62
2022/04/11 03:24:05;;;;;;;3.63;1.83;;;;;;;1.08;100.00;97599.81;10297214;28;20069;-62
2022/04/11 03:29:04;;;;;;;3.85;2.25;;;;;;;1.19;99.90;97605.28;10296103;28;20065;-62
2022/04/11 03:34:03;;;;;;;4.18;2.60;;;;;;;0.78;99.73;97546.88;10295858;28;20049;-62
2022/04/11 03:39:02;;;;;;;4.22;2.55;;;;;;;1.26;99.51;97605.53;10294485;28;20578;-62
2022/04/11 03:44:02;;;;;;;2.20;1.42;;;;;;;1.46;99.63;97620.69;10295829;28;20561;-62
2022/04/11 03:49:01;;;;;;;;;;;;;;;1.62;99.76;97635.69;10294442;28;20073;-63
2022/04/11 03:54:00;;;;;;;2.20;2.00;;;;;;;1.00;99.69;97510.13;10310124;28;20028;-63
2022/04/11 03:58:59;;;;;;;4.13;2.95;;;;;;;1.54;99.48;97585.97;10294811;28;20510;-64
2022/04/11 04:03:57;;;;;;;7.05;2.95;;;;;;;1.47;99.14;97561.03;10294276;28;20287;-63
2022/04/11 04:08:56;;;;;;;3.40;2.20;;;;;;;1.92;99.59;97665.63;10294453;28;20525;-63
2022/04/11 04:13:55;;;;;;;5.60;3.13;;;;;;;1.53;99.10;97595.34;10294809;28;20044;-63
2022/04/11 04:18:54;;;;;;;7.18;3.70;;;;;;;2.02;99.07;97672.78;10293808;28;20026;-61
2022/04/11 04:23:53;;;;;;;3.45;2.00;;;;;;;1.83;98.89;97642.28;10294025;28;20044;-62
2022/04/11 04:28:52;;;;;;;4.55;2.70;;;;;;;2.05;98.93;97687.34;10293965;28;20030;-62
2022/04/11 04:33:51;;;;;;;6.70;3.70;;;;;;;1.99;98.97;97698.25;10293686;28;20045;-62
2022/04/11 04:38:50;;;;;;;14.77;8.13;;;;;;;1.12;99.07;97576.09;10293580;28;20037;-62
2022/04/11 04:43:49;;;;;;;3.78;2.55;;;;;;;1.87;98.88;97710.66;10292989;28;20072;-62
2022/04/11 04:48:48;;;;;;;4.72;3.20;;;;;;;1.59;99.03;97681.63;10292712;28;20124;-62
2022/04/11 04:53:47;;;;;;;3.05;2.15;;;;;;;1.57;99.48;97677.28;10292653;28;20068;-61
2022/04/11 04:58:46;;;;;;;3.97;2.60;;;;;;;1.44;99.14;97650.44;10292605;28;20029;-62
2022/04/11 05:03:45;;;;;;;7.47;3.50;;;;;;;1.92;99.26;97716.78;10282297;28;20551;-63
2022/04/11 05:08:44;;;;;;;9.15;5.78;;;;;;;1.97;98.90;97705.00;10293134;28;20536;-62
2022/04/11 05:13:43;;;;;;;8.48;5.75;;;;;;;2.03;99.05;97710.34;10291980;28;20558;-62
2022/04/11 05:18:42;;;;;;;13.80;6.05;;;;;;;2.27;99.25;97740.09;10286441;28;20026;-62
2022/04/11 05:23:41;;;;;;;9.30;5.57;;;;;;;1.90;99.63;97662.13;10291311;28;20072;-62
2022/04/11 05:28:40;;;;;;;7.15;4.43;;;;;;;2.40;99.37;97749.91;10290109;28;20060;-63
2022/04/11 05:33:39;;;;;;;6.45;4.50;;;;;;;2.52;99.39;97760.50;10287684;28;20037;-62
2022/04/11 05:38:38;;;;;;;8.57;5.13;;;;;;;2.42;99.25;97742.22;10289802;28;20419;-63
2022/04/11 05:43:37;;;;;;;9.70;5.13;;;;;;;1.97;98.98;97681.97;10291055;28;20026;-63
2022/04/11 05:48:36;;;;;;;10.93;5.57;;;;;;;2.11;98.86;97742.19;10291030;28;20096;-63
2022/04/11 05:53:35;;;;;;;12.88;8.02;;;;;;;2.34;98.98;97765.06;10290591;28;20057;-63
2022/04/11 05:58:35;;;;;;;8.13;5.07;;;;;;;2.34;99.13;97742.00;10290338;28;20084;-63
2022/04/11 06:03:38;;;;;;;8.05;5.30;;;;;;;2.32;99.15;97702.69;10287380;28;20034;-63
2022/04/11 06:08:37;;;;;;;8.00;4.93;;;;;;;2.64;99.25;97742.06;10287973;28;20465;-63
2022/04/11 06:13:36;;;;;;;10.15;5.90;;;;;;;2.88;99.05;97752.16;10287896;28;20076;-63
2022/04/11 06:18:35;;;;;;;11.32;6.63;;;;;;;3.04;99.23;97752.63;10287251;28;20069;-63
2022/04/11 06:23:34;;;;;;;8.50;5.78;;;;;;;2.45;99.25;97630.53;10283857;28;20033;-63
2022/04/11 06:28:33;;;;;;;9.13;5.00;;;;;;;3.53;99.91;97766.81;10283807;28;20041;-63
2022/04/11 06:33:32;;;;;;;10.13;5.95;;;;;;;3.59;99.51;97719.09;10285287;28;20663;-63
2022/04/11 06:38:31;;;;;;;9.10;5.88;;;;;;;4.18;99.73;97762.47;10295974;28;20049;-63
2022/04/11 06:43:30;;;;;;;10.63;6.55;;;;;;;4.42;99.44;97751.06;10286166;28;20064;-63
2022/04/11 06:48:30;;;;;;;7.35;4.88;;;;;;;4.00;97.26;97651.63;10287177;28;20728;-63
2022/04/11 06:53:29;;;;;;;20.15;16.92;;;;;;;4.72;97.87;97754.31;10287652;28;20069;-63
2022/04/11 06:58:28;;;;;;;21.90;13.48;;;;;;;4.27;97.58;97683.06;10287560;28;20300;-63
2022/04/11 07:03:31;;;;;;;9.68;5.22;;;;;;;5.07;97.65;97785.09;10287666;28;20393;-63
2022/04/11 07:08:29;;;;;;;8.48;6.18;;;;;;;5.25;95.82;97784.63;10288061;28;20069;-63
2022/04/11 07:13:28;;;;;;;9.32;5.50;;;;;;;5.24;95.70;97779.44;10287956;28;20117;-63
2022/04/11 07:18:28;;;;;;;7.28;5.10;;;;;;;5.57;96.28;97796.38;10287741;28;20037;-64
2022/04/11 07:23:27;;;;;;;;;;;;;;;5.82;95.11;97801.16;10288059;28;20762;-64
2022/04/11 07:28:25;;;;;;;12.48;8.45;;;;;;;5.75;95.05;97756.38;10287949;28;20232;-64
2022/04/11 07:33:24;;;;;;;9.35;6.45;;;;;;;6.10;94.44;97786.19;10293577;28;20065;-64
2022/04/11 07:38:23;;;;;;;12.40;7.55;;;;;;;6.34;93.53;97814.06;10294791;28;20129;-64
2022/04/11 07:43:23;;;;;;;9.98;7.13;;;;;;;6.40;92.72;97817.63;10294585;28;20117;-62
2022/04/11 07:48:22;;;;;;;13.75;8.68;;;;;;;6.25;91.92;97770.13;10294551;28;20065;-65
2022/04/11 07:53:21;;;;;;;14.85;10.73;;;;;;;6.40;91.91;97809.91;10294844;28;20113;-65
2022/04/11 07:58:20;;;;;;;13.88;9.52;;;;;;;5.70;91.24;97726.28;10294865;28;20036;-64
2022/04/11 08:03:20;;;;;;;13.02;9.00;;;;;;;5.82;92.28;97754.81;10292830;28;20041;-64
2022/04/11 08:08:19;;;;;;;32.42;23.27;;;;;;;5.37;92.35;97675.91;10294047;28;20060;-64
2022/04/11 08:13:18;;;;;;;9.93;6.68;;;;;;;6.29;90.09;97780.50;10293476;28;20025;-64
2022/04/11 08:18:17;;;;;;;8.00;5.50;;;;;;;6.65;90.68;97789.63;10293904;28;20535;-63
2022/04/11 08:23:15;;;;;;;22.42;14.27;;;;;;;6.89;86.74;97812.38;10294178;28;20021;-63
2022/04/11 08:28:15;;;;;;;10.20;5.80;;;;;;;6.67;88.18;97777.63;10294063;28;20042;-63
2022/04/11 08:33:14;;;;;;;8.68;5.25;;;;;;;7.06;85.25;97859.03;10293438;28;20080;-63
2022/04/11 08:38:13;;;;;;;;;;;;;;;7.00;85.28;97869.25;10293972;28;20610;-63
2022/04/11 08:43:13;;;;;;;9.88;5.93;;;;;;;7.13;87.82;97860.88;10324010;28;20418;-63
2022/04/11 08:48:13;;;;;;;8.35;5.82;;;;;;;7.15;86.13;97864.34;10292451;28;20069;-63
2022/04/11 08:53:12;;;;;;;8.68;5.25;;;;;;;6.98;86.27;97809.91;10294830;28;20077;-63
2022/04/11 08:58:11;;;;;;;9.02;6.15;;;;;;;7.24;86.61;97809.38;10294350;28;20053;-63
2022/04/11 09:03:10;;;;;;;9.80;6.90;;;;;;;7.90;86.22;97859.28;10294635;28;20021;-63
2022/04/11 09:08:09;;;;;;;9.57;6.63;;;;;;;7.92;83.65;97817.94;10294631;28;20098;-63
2022/04/11 09:13:09;;;;;;;9.45;6.55;;;;;;;8.38;82.72;97855.47;10293841;28;20036;-63
2022/04/11 09:18:09;;;;;;;12.77;8.05;;;;;;;8.38;81.14;97793.41;10291357;28;20562;-63
2022/04/11 09:23:19;;;;;;;15.65;11.05;;;;;;;8.69;80.17;97809.16;10293513;28;20072;-62
2022/04/11 09:28:18;;;;;;;9.50;6.13;;;;;;;8.68;79.06;97764.31;10291890;28;20049;-62
2022/04/11 09:33:17;;;;;;;18.38;12.82;;;;;;;9.29;78.84;97853.59;10292223;28;20104;-62
2022/04/11 09:38:20;;;;;;;6.68;5.13;;;;;;;9.30;78.33;97853.59;10293234;28;20045;-62
2022/04/11 09:43:28;;;;;;;8.70;5.85;;;;;;;9.41;78.17;97838.09;10292207;28;20139;-62
2022/04/11 09:48:30;;;;;;;9.10;6.05;;;;;;;9.60;76.73;97844.25;10293325;28;20706;-62
2022/04/11 09:53:33;;;;;;;7.00;5.25;;;;;;;9.61;80.88;97794.16;10293205;28;20065;-62
2022/04/11 09:58:40;;;;;;;9.35;5.55;;;;;;;9.70;78.81;97840.84;10293617;28;20519;-62
2022/04/11 10:03:40;;;;;;;8.43;5.40;;;;;;;9.63;73.26;97843.38;10292992;28;20504;-62
2022/04/11 10:08:40;;;;;;;12.15;8.73;;;;;;;9.50;73.42;97839.88;10293027;28;20061;-61
2022/04/11 10:13:40;;;;;;;121.82;82.50;;;;;;;8.89;75.08;97784.28;10266916;28;20057;-62
2022/04/11 10:18:39;;;;;;;9.32;6.05;;;;;;;9.22;73.71;97821.56;10252125;28;20054;-62
2022/04/11 10:23:56;;;;;;;20.90;14.20;;;;;;;9.35;76.15;97818.25;10250428;28;20503;-62
2022/04/11 10:28:55;;;;;;;8.13;5.35;;;;;;;9.63;75.80;97828.72;10252088;28;20068;-61
2022/04/11 10:33:55;;;;;;;;;;;;;;;9.89;75.52;97830.53;10251115;28;20061;-61
2022/04/11 10:39:12;;;;;;;7.77;5.60;;;;;;;9.80;66.14;97826.19;10250516;28;19941;-60
2022/04/11 10:44:32;;;;;;;8.27;5.63;;;;;;;9.96;67.18;97815.00;10251674;28;20054;-60
2022/04/11 10:49:52;;;;;;;8.20;6.07;;;;;;;10.46;71.78;97794.31;10250816;28;20066;-60
2022/04/11 10:54:54;;;;;;;18.73;13.95;;;;;;;10.40;64.37;97743.28;10248550;28;20068;-60
2022/04/11 11:00:08;;;;;;;22.10;15.55;;;;;;;10.80;62.31;97803.81;10285643;28;20062;-60
2022/04/11 11:05:47;;;;;;;23.58;13.80;;;;;;;10.11;56.91;97815.88;10286020;28;20068;-62
2022/04/11 11:10:57;;;;;;;11.63;6.07;;;;;;;8.94;55.77;97773.97;10296238;28;20076;-60
2022/04/11 11:16:09;;;;;;;14.80;6.63;;;;;;;8.51;51.25;97821.09;10297146;28;20068;-59
2022/04/11 11:21:08;;;;;;;11.85;6.25;;;;;;;8.09;54.38;97790.56;10297047;28;20064;-62
2022/04/11 11:26:15;;;;;;;12.13;6.13;;;;;;;8.43;52.11;97806.38;10296546;28;20240;-62
2022/04/11 11:31:14;;;;;;;7.13;5.20;;;;;;;8.75;52.56;97818.69;10296667;28;20374;-61
2022/04/11 11:36:13;;;;;;;8.18;5.25;;;;;;;8.63;50.66;97798.78;10296777;28;20205;-59
2022/04/11 11:41:12;;;;;;;5.90;3.88;;;;;;;8.38;49.02;97736.53;10296330;28;20065;-60
2022/04/11 11:46:11;;;;;;;6.03;4.07;;;;;;;8.49;48.33;97757.28;10296015;28;20051;-59
2022/04/11 11:51:10;;;;;;;14.15;7.00;;;;;;;8.70;48.69;97813.50;10295467;28;20050;-59
2022/04/11 11:56:09;;;;;;;8.48;5.32;;;;;;;8.48;48.18;97792.66;10295775;28;20030;-59
2022/04/11 12:01:12;;;;;;;;;;;;;;;9.17;50.41;97809.47;10296022;28;20069;-59
2022/04/11 12:06:11;;;;;;;6.88;4.25;;;;;;;9.57;45.83;97782.06;10295396;28;20759;-61
2022/04/11 12:11:10;;;;;;;7.80;4.13;;;;;;;9.88;45.85;97806.31;10295502;28;20061;-59
2022/04/11 12:16:15;;;;;;;5.78;3.28;;;;;;;9.96;46.78;97811.56;10294628;28;20065;-59
2022/04/11 12:21:14;;;;;;;20.35;15.10;;;;;;;9.65;49.45;97743.22;10294820;28;20053;-60
2022/04/11 12:26:26;;;;;;;;;;;;;;;10.41;43.69;97802.94;10295266;28;20488;-59
2022/04/11 12:31:24;;;;;;;8.13;5.18;;;;;;;10.39;43.81;97775.28;10294140;28;19962;-59
2022/04/11 12:36:30;;;;;;;10.23;4.53;;;;;;;10.99;44.48;97794.28;10294089;28;20033;-59
2022/04/11 12:41:43;;;;;;;8.00;4.30;;;;;;;10.74;39.19;97797.75;10292520;28;20104;-60
2022/04/11 12:47:06;;;;;;;5.65;2.72;;;;;;;10.23;40.14;97709.56;10293237;28;20482;-61
2022/04/11 12:52:07;;;;;;;8.20;4.82;;;;;;;10.78;42.38;97794.31;10293458;28;20080;-61
2022/04/11 12:57:07;;;;;;;8.07;5.72;;;;;;;10.95;39.81;97792.56;10293998;28;20110;-61
2022/04/11 13:02:08;;;;;;;49.30;30.77;;;;;;;10.92;37.79;97757.97;10293519;28;20096;-61
2022/04/11 13:07:08;;;;;;;8.27;5.90;;;;;;;10.12;42.17;97758.84;10293390;28;20057;-61
2022/04/11 13:12:12;;;;;;;10.65;6.55;;;;;;;9.63;43.15;97812.28;10292926;28;20065;-61
2022/04/11 13:22:30;;;;;;;9.15;6.25;;;;;;;9.12;41.44;97773.22;10292983;28;20057;-62
2022/04/11 13:27:29;;;;;;;6.32;4.03;;;;;;;9.43;41.63;97805.31;10292310;28;20059;-61
2022/04/11 13:32:28;;;;;;;7.70;4.72;;;;;;;9.63;41.29;97797.63;10291515;28;20037;-61
2022/04/11 13:37:26;;;;;;;6.45;3.88;;;;;;;9.89;41.12;97822.78;10292027;28;20114;-62
2022/04/11 13:42:26;;;;;;;4.60;3.13;;;;;;;9.41;39.78;97780.28;10291450;28;20045;-62
2022/04/11 13:47:27;;;;;;;7.53;3.97;;;;;;;9.70;42.30;97760.50;10291478;28;20065;-62
2022/04/11 13:52:26;;;;;;;14.27;9.93;;;;;;;10.17;43.24;97826.28;10291236;28;20415;-60
2022/04/11 13:57:25;;;;;;;9.98;4.38;;;;;;;10.05;43.65;97785.66;10291205;28;20335;-60
2022/04/11 14:02:24;;;;;;;15.02;9.18;;;;;;;10.78;44.92;97825.44;10291012;28;20072;-60
2022/04/11 14:07:23;;;;;;;6.82;4.75;;;;;;;10.43;41.06;97764.06;10290651;28;20026;-60
2022/04/11 14:12:22;;;;;;;5.88;4.25;;;;;;;10.13;39.63;97853.06;10291143;28;20037;-60
2022/04/11 14:17:21;;;;;;;9.63;5.93;;;;;;;9.20;42.00;97768.91;10290387;28;20018;-61
2022/04/11 14:22:20;;;;;;;18.48;11.25;;;;;;;9.05;40.38;97802.50;10290182;28;20037;-60
2022/04/11 14:27:19;;;;;;;13.15;5.97;;;;;;;9.05;41.42;97836.16;10290338;28;20256;-60
2022/04/11 14:32:18;;;;;;;14.63;7.72;;;;;;;8.73;42.11;97805.75;10282767;28;20117;-61
2022/04/11 14:37:17;;;;;;;9.27;6.32;;;;;;;8.85;41.78;97830.84;10289081;28;20022;-61
2022/04/11 14:42:16;;;;;;;11.40;6.05;;;;;;;8.84;40.66;97861.03;10285731;28;20490;-61
2022/04/11 14:47:15;;;;;;;8.43;4.95;;;;;;;8.49;40.77;97847.81;10288944;28;20065;-60
2022/04/11 14:52:14;;;;;;;55.58;29.95;;;;;;;8.42;42.07;97854.66;10287832;28;20077;-61
2022/04/11 14:57:13;;;;;;;66.07;31.92;;;;;;;8.20;40.38;97845.84;10289177;28;20065;-61
2022/04/11 15:02:14;;;;;;;84.90;39.50;;;;;;;8.66;42.81;97860.88;10288541;28;20459;-61
2022/04/11 15:07:13;;;;;;;76.80;42.15;;;;;;;8.98;44.46;97863.72;10289563;28;20073;-61
2022/04/11 15:12:12;;;;;;;74.85;43.88;;;;;;;9.29;44.68;97870.00;10288797;28;20030;-61
2022/04/11 15:17:14;;;;;;;15.60;8.20;;;;;;;8.99;42.65;97823.16;10288796;28;20484;-61
2022/04/11 15:22:14;;;;;;;15.30;11.63;;;;;;;9.19;42.19;97862.13;10289136;28;20057;-60
2022/04/11 15:27:13;;;;;;;10.20;8.00;;;;;;;8.64;39.39;97795.31;10286854;28;20487;-61
2022/04/11 15:32:12;;;;;;;21.67;14.95;;;;;;;9.02;40.22;97839.59;10288112;28;20065;-61
2022/04/11 15:37:11;;;;;;;7.72;4.45;;;;;;;9.04;38.19;97834.41;10289257;28;20356;-61
2022/04/11 15:42:10;;;;;;;6.75;3.60;;;;;;;8.54;36.16;97830.59;10287481;28;20030;-61
2022/04/11 15:47:09;;;;;;;37.65;21.02;;;;;;;8.50;36.88;97841.78;10288788;28;20073;-61
2022/04/11 15:52:09;;;;;;;14.88;7.97;;;;;;;8.72;38.35;97860.94;10289069;28;20137;-60
2022/04/11 15:57:08;;;;;;;9.40;6.50;;;;;;;8.47;36.09;97855.53;10288411;28;20527;-61
2022/04/11 16:02:07;;;;;;;9.50;6.55;;;;;;;8.35;37.67;97829.59;10295020;28;20415;-60
2022/04/11 16:07:06;;;;;;;5.90;3.85;;;;;;;8.51;36.71;97877.16;10294687;28;20124;-60
2022/04/11 16:12:05;;;;;;;6.78;3.90;;;;;;;8.56;38.20;97890.97;10294803;28;20045;-61
2022/04/11 16:17:04;;;;;;;6.18;3.72;;;;;;;8.64;38.38;97903.97;10294492;28;20427;-60
2022/04/11 16:22:04;;;;;;;16.88;11.38;;;;;;;8.67;39.99;97904.03;10294745;28;20025;-61
2022/04/11 16:27:03;;;;;;;15.93;8.18;;;;;;;8.21;39.86;97886.31;10294205;28;20088;-60
2022/04/11 16:32:02;;;;;;;67.72;33.22;;;;;;;8.39;40.48;97919.28;10294164;28;20054;-60
2022/04/11 16:37:01;;;;;;;21.25;11.20;;;;;;;8.38;41.75;97914.06;10294313;28;20080;-61
2022/04/11 16:42:00;;;;;;;50.25;23.85;;;;;;;8.55;42.16;97924.59;10293376;28;20061;-60
2022/04/11 16:47:00;;;;;;;25.48;14.80;;;;;;;7.98;41.57;97886.06;10292980;28;20479;-62
2022/04/11 16:51:59;;;;;;;9.18;4.63;;;;;;;7.73;41.41;97918.50;10293391;28;20077;-61
2022/04/11 16:56:58;;;;;;;6.40;4.57;;;;;;;7.21;41.00;97910.00;10293032;28;20037;-60
2022/04/11 17:01:57;;;;;;;4.82;4.32;;;;;;;7.49;42.41;97957.78;10292878;28;20034;-62
2022/04/11 17:06:56;;;;;;;7.35;4.50;;;;;;;7.43;42.20;97979.22;10292006;28;20032;-60
2022/04/11 17:11:56;;;;;;;10.63;6.65;;;;;;;7.25;41.02;97974.59;10292302;28;20065;-60
2022/04/11 17:22:12;;;;;;;6.93;4.07;;;;;;;6.92;41.69;97932.78;10291174;28;20053;-60
2022/04/11 17:27:13;;;;;;;12.15;6.50;;;;;;;7.27;43.09;98004.75;10291862;28;20109;-60
2022/04/11 17:32:12;;;;;;;13.73;7.90;;;;;;;6.98;44.66;97979.31;10291603;28;20531;-61
2022/04/11 17:37:11;;;;;;;20.58;11.18;;;;;;;6.96;45.70;98027.44;10292133;28;20511;-60
2022/04/11 17:42:10;;;;;;;17.08;7.40;;;;;;;6.73;46.07;98033.06;10291194;28;20061;-60
2022/04/11 17:47:09;;;;;;;10.77;6.68;;;;;;;6.55;46.85;98036.16;10290711;28;20030;-60
2022/04/11 17:52:08;;;;;;;11.90;7.10;;;;;;;6.40;47.23;98043.59;10292374;28;20120;-60
2022/04/11 17:57:07;;;;;;;12.13;7.10;;;;;;;6.18;47.59;98037.97;10288583;28;20041;-60
2022/04/11 18:02:06;;;;;;;10.68;7.28;;;;;;;6.10;47.52;98056.72;10290699;28;20036;-61
2022/04/11 18:07:05;;;;;;;15.88;9.93;;;;;;;5.97;48.18;98064.16;10290121;28;20095;-61
2022/04/11 18:12:06;;;;;;;26.02;18.55;;;;;;;5.87;49.17;98066.50;10289838;28;20037;-61
2022/04/11 18:17:07;;;;;;;25.58;17.70;;;;;;;5.69;50.55;98070.38;10290061;28;20471;-61
2022/04/11 18:22:06;;;;;;;21.20;13.23;;;;;;;5.22;51.54;98028.06;10291160;28;20464;-61
2022/04/11 18:27:07;;;;;;;18.70;13.07;;;;;;;5.37;52.65;98085.06;10288602;28;20074;-61
2022/04/11 18:32:07;;;;;;;19.35;12.20;;;;;;;5.21;53.30;98093.25;10290303;28;20072;-61
2022/04/11 18:37:06;;;;;;;21.75;13.20;;;;;;;5.06;53.91;98101.41;10290968;28;20069;-60
2022/04/11 18:42:06;;;;;;;19.58;11.95;;;;;;;4.95;54.05;98108.84;10289751;28;20145;-61
2022/04/11 18:47:05;;;;;;;18.77;11.25;;;;;;;4.81;54.30;98116.16;10289922;28;20058;-61
2022/04/11 18:52:04;;;;;;;13.07;9.05;;;;;;;4.70;54.74;98112.41;10290217;28;20070;-61
2022/04/11 18:57:04;;;;;;;14.48;8.98;;;;;;;4.58;54.89;98097.53;10288457;28;20061;-61
2022/04/11 19:02:03;;;;;;;13.82;8.75;;;;;;;4.57;55.49;98115.47;10289252;28;20061;-61
2022/04/11 19:07:02;;;;;;;15.30;9.63;;;;;;;4.18;55.71;98068.13;10289681;28;20069;-60
2022/04/11 19:12:01;;;;;;;18.35;11.18;;;;;;;3.65;55.68;98016.03;10289058;28;20094;-61
2022/04/11 19:17:01;;;;;;;17.48;10.80;;;;;;;3.82;56.13;98037.97;10288762;28;20072;-61
2022/04/11 19:22:01;;;;;;;27.45;18.58;;;;;;;4.11;57.83;98140.69;10289423;28;20475;-60
2022/04/11 19:27:00;;;;;;;;;;;;;;;4.01;57.96;98136.97;10290392;28;20061;-61
2022/04/11 19:31:59;;;;;;;28.30;18.95;;;;;;;3.68;58.29;98099.94;10296341;28;19917;-61
2022/04/11 19:36:58;;;;;;;20.73;13.57;;;;;;;3.83;59.07;98144.94;10296134;28;20021;-60
2022/04/11 19:41:57;;;;;;;21.88;12.90;;;;;;;3.41;58.86;98083.72;10295941;28;20084;-61
2022/04/11 19:46:56;;;;;;;21.35;13.82;;;;;;;3.61;59.58;98147.63;10295691;28;20510;-61
2022/04/11 19:51:55;;;;;;;23.30;13.73;;;;;;;3.42;59.67;98123.97;10295571;28;20147;-61
2022/04/11 19:56:54;;;;;;;20.88;14.05;;;;;;;3.55;59.62;98153.44;10295596;28;20472;-60
2022/04/11 20:01:53;;;;;;;23.27;14.13;;;;;;;3.16;60.31;98104.25;10295737;28;20053;-60
2022/04/11 20:06:52;;;;;;;18.33;12.23;;;;;;;3.44;60.88;98154.78;10295209;28;20069;-61
2022/04/11 20:11:51;;;;;;;15.95;10.75;;;;;;;3.34;61.71;98155.31;10295536;28;20108;-61
2022/04/11 20:16:51;;;;;;;11.77;7.80;;;;;;;3.24;61.90;98156.69;10294694;28;20041;-60
2022/04/11 20:21:51;;;;;;;12.15;8.15;;;;;;;3.17;62.32;98159.88;10294695;28;20053;-61
2022/04/11 20:26:50;;;;;;;19.35;12.88;;;;;;;3.06;63.07;98166.31;10295043;28;20480;-60
2022/04/11 20:31:49;;;;;;;16.50;9.70;;;;;;;2.73;62.93;98130.97;10293973;28;20469;-61
2022/04/11 20:36:48;;;;;;;19.88;12.18;;;;;;;2.77;63.17;98155.91;10294315;28;20529;-61
2022/04/11 20:41:49;;;;;;;26.83;16.63;;;;;;;2.58;63.80;98150.09;10293997;28;20060;-61
2022/04/11 20:46:48;;;;;;;26.88;15.20;;;;;;;2.39;64.55;98139.97;10293533;28;20084;-61
2022/04/11 20:51:47;;;;;;;15.48;10.10;;;;;;;2.17;64.35;98113.56;10293728;28;20077;-60
2022/04/11 20:56:46;;;;;;;15.52;9.23;;;;;;;1.78;64.17;98060.88;10293158;28;20057;-60
2022/04/11 21:01:45;;;;;;;15.27;8.77;;;;;;;2.51;64.06;98194.25;10293097;28;20092;-60
2022/04/11 21:06:44;;;;;;;14.93;8.55;;;;;;;2.49;63.78;98188.19;10292916;28;20479;-60
2022/04/11 21:11:43;;;;;;;;;;;;;;;2.54;64.28;98196.03;10292236;28;20066;-60
2022/04/11 21:16:42;;;;;;;20.52;12.45;;;;;;;2.46;63.92;98202.56;10292629;28;19913;-60
2022/04/11 21:21:41;;;;;;;17.60;9.10;;;;;;;2.46;64.17;98205.97;10293104;28;20443;-61
2022/04/11 21:26:40;;;;;;;11.88;7.25;;;;;;;2.44;64.41;98199.94;10292813;28;20030;-61
2022/04/11 21:31:41;;;;;;;17.00;9.10;;;;;;;2.25;64.57;98194.91;10291758;28;20025;-60
2022/04/11 21:36:40;;;;;;;23.10;15.48;;;;;;;2.37;64.68;98209.09;10291684;28;20074;-60
2022/04/11 21:41:39;;;;;;;39.22;23.95;;;;;;;2.08;66.27;98192.56;10290965;28;20065;-60
2022/04/11 21:46:38;;;;;;;38.97;24.25;;;;;;;1.93;66.21;98171.50;10291429;28;20065;-60
2022/04/11 21:51:37;;;;;;;36.30;22.02;;;;;;;2.11;66.53;98215.75;10290655;28;20049;-61
2022/04/11 21:56:37;;;;;;;39.15;24.90;;;;;;;1.59;68.06;98159.91;10291138;28;20037;-61
2022/04/11 22:01:37;;;;;;;44.65;27.58;;;;;;;1.80;68.45;98235.78;10290936;28;20061;-61
2022/04/11 22:06:36;;;;;;;71.07;46.30;;;;;;;1.69;68.88;98238.78;10290463;28;20524;-61
2022/04/11 22:11:35;;;;;;;48.47;28.67;;;;;;;1.68;69.05;98231.91;10291322;28;20554;-60
2022/04/11 22:16:34;;;;;;;24.88;16.23;;;;;;;1.56;68.89;98207.53;10290393;28;20061;-61
2022/04/11 22:21:33;;;;;;;20.55;11.52;;;;;;;1.65;68.94;98224.13;10289211;28;20112;-61
2022/04/11 22:26:33;;;;;;;22.30;11.75;;;;;;;1.53;68.73;98210.81;10285468;28;20040;-61
2022/04/11 22:31:32;;;;;;;27.42;16.00;;;;;;;1.57;69.07;98220.34;10286949;28;20061;-60
2022/04/11 22:36:31;;;;;;;17.77;10.57;;;;;;;1.60;68.51;98230.72;10288158;28;20068;-60
2022/04/11 22:41:30;;;;;;;56.67;32.85;;;;;;;1.10;70.17;98173.19;10290364;28;20214;-61
2022/04/11 22:46:29;;;;;;;55.22;31.05;;;;;;;0.89;70.86;98148.47;10290029;28;20025;-60
2022/04/11 22:51:28;;;;;;;41.38;27.35;;;;;;;1.21;71.41;98215.44;10289360;28;20504;-61
2022/04/11 22:56:27;;;;;;;27.40;17.77;;;;;;;0.93;71.46;98189.50;10289770;28;20036;-60
2022/04/11 23:01:26;;;;;;;20.35;13.05;;;;;;;1.08;71.78;98219.16;10290494;28;20054;-60
2022/04/11 23:06:25;;;;;;;34.08;22.48;;;;;;;1.02;72.52;98207.78;10297705;28;20034;-60
2022/04/11 23:11:24;;;;;;;26.35;15.35;;;;;;;0.98;72.59;98221.22;10297866;28;20399;-61
2022/04/11 23:16:23;;;;;;;19.77;13.10;;;;;;;0.50;72.58;98160.38;10297268;28;20156;-60
2022/04/11 23:21:22;;;;;;;27.17;14.73;;;;;;;0.84;72.91;98208.72;10297088;28;20057;-61
2022/04/11 23:26:21;;;;;;;22.25;11.98;;;;;;;0.53;72.77;98157.09;10296761;28;20072;-60
2022/04/11 23:31:20;;;;;;;30.92;21.38;;;;;;;0.51;73.87;98176.56;10297394;28;20072;-60